sensor_id;sensor_type;location;lat;lon;timestamp;pressure;altitude;pressure_sealevel;temperature;humidity
63006;BME280;53704;52.532;6.426;2023-04-02T00:02:58;101270.59;;;4.02;100.00
63006;BME280;53704;52.532;6.426;2023-04-02T00:08:36;101288.31;;;4.03;100.00
63006;BME280;53704;52.532;6.426;2023-04-02T00:11:03;101288.09;;;4.06;100.00
63006;BME280;53704;52.532;6.426;2023-04-02T00:13:42;101303.97;;;4.07;100.00
63006;BME280;53704;52.532;6.426;2023-04-02T00:16:22;101297.38;;;4.00;100.00
63006;BME280;53704;52.532;6.426;2023-04-02T00:18:51;101306.31;;;3.99;100.00
63006;BME280;53704;52.532;6.426;2023-04-02T00:21:26;101320.28;;;4.03;100.00
63006;BME280;53704;52.532;6.426;2023-04-02T00:23:54;101318.13;;;4.08;100.00
63006;BME280;53704;52.532;6.426;2023-04-02T00:26:43;101322.00;;;4.04;100.00
63006;BME280;53704;52.532;6.426;2023-04-02T00:29:13;101326.91;;;3.84;100.00
63006;BME280;53704;52.532;6.426;2023-04-02T00:31:44;101323.28;;;3.85;100.00
63006;BME280;53704;52.532;6.426;2023-04-02T00:34:36;101327.34;;;3.91;100.00
63006;BME280;53704;52.532;6.426;2023-04-02T00:37:02;101334.47;;;3.90;100.00
63006;BME280;53704;52.532;6.426;2023-04-02T00:39:33;101341.41;;;3.80;100.00
63006;BME280;53704;52.532;6.426;2023-04-02T00:42:11;101346.94;;;3.77;100.00
63006;BME280;53704;52.532;6.426;2023-04-02T00:44:40;101347.16;;;3.74;100.00
63006;BME280;53704;52.532;6.426;2023-04-02T00:47:17;101337.25;;;3.76;100.00
63006;BME280;53704;52.532;6.426;2023-04-02T00:49:44;101355.25;;;3.85;100.00
63006;BME280;53704;52.532;6.426;2023-04-02T00:52:15;101346.31;;;3.86;100.00
63006;BME280;53704;52.532;6.426;2023-04-02T00:54:45;101350.88;;;3.84;100.00
63006;BME280;53704;52.532;6.426;2023-04-02T00:57:19;101355.66;;;3.66;100.00
63006;BME280;53704;52.532;6.426;2023-04-02T01:00:17;101367.38;;;3.63;100.00
63006;BME280;53704;52.532;6.426;2023-04-02T01:03:36;101364.84;;;3.75;100.00
63006;BME280;53704;52.532;6.426;2023-04-02T01:17:06;101394.44;;;3.57;100.00
63006;BME280;53704;52.532;6.426;2023-04-02T01:22:31;101408.06;;;3.53;100.00
63006;BME280;53704;52.532;6.426;2023-04-02T01:25:00;101408.59;;;3.58;100.00
63006;BME280;53704;52.532;6.426;2023-04-02T01:27:34;101411.50;;;3.68;100.00
63006;BME280;53704;52.532;6.426;2023-04-02T01:30:04;101414.16;;;3.68;100.00
63006;BME280;53704;52.532;6.426;2023-04-02T01:32:32;101417.56;;;3.70;100.00
63006;BME280;53704;52.532;6.426;2023-04-02T01:34:58;101431.03;;;3.41;100.00
63006;BME280;53704;52.532;6.426;2023-04-02T01:45:18;101454.59;;;3.20;100.00
63006;BME280;53704;52.532;6.426;2023-04-02T01:47:46;101459.25;;;3.16;100.00
63006;BME280;53704;52.532;6.426;2023-04-02T01:50:34;101466.88;;;3.08;100.00
63006;BME280;53704;52.532;6.426;2023-04-02T01:53:06;101462.53;;;3.07;100.00
63006;BME280;53704;52.532;6.426;2023-04-02T01:55:52;101471.91;;;3.13;100.00
63006;BME280;53704;52.532;6.426;2023-04-02T01:58:20;101474.88;;;3.08;100.00
63006;BME280;53704;52.532;6.426;2023-04-02T02:03:22;101482.78;;;2.95;100.00
63006;BME280;53704;52.532;6.426;2023-04-02T02:05:48;101489.34;;;3.04;100.00
63006;BME280;53704;52.532;6.426;2023-04-02T02:10:58;101493.16;;;2.85;100.00
63006;BME280;53704;52.532;6.426;2023-04-02T02:13:23;101499.63;;;2.81;100.00
63006;BME280;53704;52.532;6.426;2023-04-02T02:15:49;101497.25;;;2.91;100.00
63006;BME280;53704;52.532;6.426;2023-04-02T02:18:19;101502.06;;;2.84;100.00
63006;BME280;53704;52.532;6.426;2023-04-02T02:20:47;101510.63;;;2.89;100.00
63006;BME280;53704;52.532;6.426;2023-04-02T02:23:14;101514.91;;;2.78;100.00
63006;BME280;53704;52.532;6.426;2023-04-02T02:25:40;101523.19;;;2.73;100.00
63006;BME280;53704;52.532;6.426;2023-04-02T02:28:19;101522.72;;;2.66;100.00
63006;BME280;53704;52.532;6.426;2023-04-02T02:31:18;101526.78;;;2.58;100.00
63006;BME280;53704;52.532;6.426;2023-04-02T02:33:51;101537.03;;;2.49;100.00
63006;BME280;53704;52.532;6.426;2023-04-02T02:36:55;101538.75;;;2.50;100.00
63006;BME280;53704;52.532;6.426;2023-04-02T02:39:28;101543.69;;;2.42;100.00
63006;BME280;53704;52.532;6.426;2023-04-02T02:42:07;101546.16;;;2.31;100.00
63006;BME280;53704;52.532;6.426;2023-04-02T02:44:38;101560.19;;;2.33;100.00
63006;BME280;53704;52.532;6.426;2023-04-02T02:47:13;101565.03;;;2.26;100.00
63006;BME280;53704;52.532;6.426;2023-04-02T02:49:42;101569.66;;;2.23;100.00
63006;BME280;53704;52.532;6.426;2023-04-02T02:54:37;101583.34;;;2.31;100.00
63006;BME280;53704;52.532;6.426;2023-04-02T02:57:07;101578.94;;;2.15;100.00
63006;BME280;53704;52.532;6.426;2023-04-02T02:59:34;101589.94;;;2.09;100.00
63006;BME280;53704;52.532;6.426;2023-04-02T03:02:00;101592.53;;;1.95;100.00
63006;BME280;53704;52.532;6.426;2023-04-02T03:04:27;101596.78;;;1.97;100.00
63006;BME280;53704;52.532;6.426;2023-04-02T03:06:56;101599.28;;;2.01;100.00
63006;BME280;53704;52.532;6.426;2023-04-02T03:09:40;101605.84;;;1.79;100.00
63006;BME280;53704;52.532;6.426;2023-04-02T03:15:05;101617.75;;;1.72;100.00
63006;BME280;53704;52.532;6.426;2023-04-02T03:17:36;101622.88;;;1.59;100.00
63006;BME280;53704;52.532;6.426;2023-04-02T03:20:16;101618.69;;;1.55;100.00
63006;BME280;53704;52.532;6.426;2023-04-02T03:22:48;101631.44;;;1.48;100.00
63006;BME280;53704;52.532;6.426;2023-04-02T03:28:03;101645.13;;;1.40;100.00
63006;BME280;53704;52.532;6.426;2023-04-02T03:30:54;101651.38;;;1.23;100.00
63006;BME280;53704;52.532;6.426;2023-04-02T03:33:37;101665.75;;;1.19;100.00
63006;BME280;53704;52.532;6.426;2023-04-02T03:38:53;101670.69;;;1.10;100.00
63006;BME280;53704;52.532;6.426;2023-04-02T03:41:32;101668.16;;;0.90;100.00
63006;BME280;53704;52.532;6.426;2023-04-02T03:44:05;101679.59;;;0.91;100.00
63006;BME280;53704;52.532;6.426;2023-04-02T03:46:41;101684.97;;;0.89;100.00
63006;BME280;53704;52.532;6.426;2023-04-02T03:49:13;101693.88;;;0.88;100.00
63006;BME280;53704;52.532;6.426;2023-04-02T03:52:10;101706.97;;;0.74;100.00
63006;BME280;53704;52.532;6.426;2023-04-02T03:54:38;101709.25;;;0.82;100.00
63006;BME280;53704;52.532;6.426;2023-04-02T03:57:04;101712.78;;;0.82;100.00
63006;BME280;53704;52.532;6.426;2023-04-02T03:59:40;101721.41;;;0.68;100.00
63006;BME280;53704;52.532;6.426;2023-04-02T04:02:40;101726.50;;;0.73;100.00
63006;BME280;53704;52.532;6.426;2023-04-02T04:05:18;101730.28;;;0.67;100.00
63006;BME280;53704;52.532;6.426;2023-04-02T04:07:45;101735.44;;;0.70;100.00
63006;BME280;53704;52.532;6.426;2023-04-02T04:10:17;101734.44;;;0.56;100.00
63006;BME280;53704;52.532;6.426;2023-04-02T04:12:46;101745.25;;;0.51;100.00
63006;BME280;53704;52.532;6.426;2023-04-02T04:15:25;101760.38;;;0.66;100.00
63006;BME280;53704;52.532;6.426;2023-04-02T04:20:34;101765.19;;;0.58;100.00
63006;BME280;53704;52.532;6.426;2023-04-02T04:23:09;101774.50;;;0.67;100.00
63006;BME280;53704;52.532;6.426;2023-04-02T04:25:35;101786.09;;;0.64;100.00
63006;BME280;53704;52.532;6.426;2023-04-02T04:28:35;101779.25;;;0.60;100.00
63006;BME280;53704;52.532;6.426;2023-04-02T04:31:13;101792.88;;;0.52;100.00
63006;BME280;53704;52.532;6.426;2023-04-02T04:33:44;101796.53;;;0.50;100.00
63006;BME280;53704;52.532;6.426;2023-04-02T04:36:26;101800.09;;;0.49;100.00
63006;BME280;53704;52.532;6.426;2023-04-02T04:38:54;101810.53;;;0.52;100.00
63006;BME280;53704;52.532;6.426;2023-04-02T04:41:35;101819.59;;;0.48;100.00
63006;BME280;53704;52.532;6.426;2023-04-02T04:47:00;101836.47;;;0.45;100.00
63006;BME280;53704;52.532;6.426;2023-04-02T04:49:53;101837.91;;;0.52;100.00
63006;BME280;53704;52.532;6.426;2023-04-02T04:52:24;101842.78;;;0.43;100.00
63006;BME280;53704;52.532;6.426;2023-04-02T04:54:51;101846.22;;;0.45;100.00
63006;BME280;53704;52.532;6.426;2023-04-02T04:57:29;101853.56;;;0.40;100.00
63006;BME280;53704;52.532;6.426;2023-04-02T05:00:18;101859.25;;;0.49;100.00
63006;BME280;53704;52.532;6.426;2023-04-02T05:03:00;101858.03;;;0.38;100.00
63006;BME280;53704;52.532;6.426;2023-04-02T05:05:30;101862.97;;;0.45;100.00
63006;BME280;53704;52.532;6.426;2023-04-02T05:08:04;101867.28;;;0.48;100.00
63006;BME280;53704;52.532;6.426;2023-04-02T05:10:37;101870.38;;;0.39;100.00
63006;BME280;53704;52.532;6.426;2023-04-02T05:13:33;101878.03;;;0.45;100.00
63006;BME280;53704;52.532;6.426;2023-04-02T05:16:39;101884.72;;;0.52;100.00
63006;BME280;53704;52.532;6.426;2023-04-02T05:19:11;101896.78;;;0.40;100.00
63006;BME280;53704;52.532;6.426;2023-04-02T05:21:46;101899.22;;;0.45;100.00
63006;BME280;53704;52.532;6.426;2023-04-02T05:27:32;101906.06;;;0.49;100.00
63006;BME280;53704;52.532;6.426;2023-04-02T05:32:36;101910.88;;;0.41;100.00
63006;BME280;53704;52.532;6.426;2023-04-02T05:35:05;101922.44;;;0.40;100.00
63006;BME280;53704;52.532;6.426;2023-04-02T05:37:32;101927.13;;;0.33;100.00
63006;BME280;53704;52.532;6.426;2023-04-02T05:40:04;101936.59;;;0.39;100.00
63006;BME280;53704;52.532;6.426;2023-04-02T05:42:36;101946.09;;;0.43;100.00
63006;BME280;53704;52.532;6.426;2023-04-02T05:45:24;101953.53;;;0.34;100.00
63006;BME280;53704;52.532;6.426;2023-04-02T05:47:54;101959.13;;;0.28;100.00
63006;BME280;53704;52.532;6.426;2023-04-02T05:50:36;101963.09;;;0.39;100.00
63006;BME280;53704;52.532;6.426;2023-04-02T05:58:40;101985.13;;;0.39;100.00
63006;BME280;53704;52.532;6.426;2023-04-02T06:01:11;101989.84;;;0.32;100.00
63006;BME280;53704;52.532;6.426;2023-04-02T06:04:06;101992.59;;;0.50;100.00
63006;BME280;53704;52.532;6.426;2023-04-02T06:09:23;102024.81;;;0.60;100.00
63006;BME280;53704;52.532;6.426;2023-04-02T06:12:39;102029.38;;;0.37;100.00
63006;BME280;53704;52.532;6.426;2023-04-02T06:15:01;102042.97;;;0.29;100.00
63006;BME280;53704;52.532;6.426;2023-04-02T06:17:27;102039.56;;;0.46;100.00
63006;BME280;53704;52.532;6.426;2023-04-02T06:19:55;102055.78;;;0.59;100.00
63006;BME280;53704;52.532;6.426;2023-04-02T06:24:54;102065.06;;;0.49;100.00
63006;BME280;53704;52.532;6.426;2023-04-02T06:27:23;102066.00;;;0.48;100.00
63006;BME280;53704;52.532;6.426;2023-04-02T06:29:52;102072.28;;;0.45;100.00
63006;BME280;53704;52.532;6.426;2023-04-02T06:32:22;102068.91;;;0.42;100.00
63006;BME280;53704;52.532;6.426;2023-04-02T06:34:51;102078.97;;;0.54;100.00
63006;BME280;53704;52.532;6.426;2023-04-02T06:37:35;102078.97;;;0.54;100.00
63006;BME280;53704;52.532;6.426;2023-04-02T06:40:03;102094.31;;;0.66;100.00
63006;BME280;53704;52.532;6.426;2023-04-02T06:42:36;102099.53;;;0.68;100.00
63006;BME280;53704;52.532;6.426;2023-04-02T06:45:03;102093.47;;;0.66;100.00
63006;BME280;53704;52.532;6.426;2023-04-02T06:47:36;102093.75;;;0.79;100.00
63006;BME280;53704;52.532;6.426;2023-04-02T06:52:41;102104.50;;;0.76;100.00
63006;BME280;53704;52.532;6.426;2023-04-02T06:55:29;102101.66;;;0.80;100.00
63006;BME280;53704;52.532;6.426;2023-04-02T06:57:56;102113.78;;;0.86;100.00
63006;BME280;53704;52.532;6.426;2023-04-02T07:00:33;102108.69;;;0.81;100.00
63006;BME280;53704;52.532;6.426;2023-04-02T07:03:01;102105.78;;;1.06;100.00
63006;BME280;53704;52.532;6.426;2023-04-02T07:05:29;102112.13;;;1.02;100.00
63006;BME280;53704;52.532;6.426;2023-04-02T07:07:56;102121.41;;;0.94;100.00
63006;BME280;53704;52.532;6.426;2023-04-02T07:10:21;102123.03;;;1.15;100.00
63006;BME280;53704;52.532;6.426;2023-04-02T07:12:47;102122.13;;;1.16;100.00
63006;BME280;53704;52.532;6.426;2023-04-02T07:15:16;102128.47;;;1.50;100.00
63006;BME280;53704;52.532;6.426;2023-04-02T07:17:44;102134.66;;;1.51;100.00
63006;BME280;53704;52.532;6.426;2023-04-02T07:20:30;102135.22;;;1.57;100.00
63006;BME280;53704;52.532;6.426;2023-04-02T07:22:56;102140.81;;;1.51;100.00
63006;BME280;53704;52.532;6.426;2023-04-02T07:25:23;102152.63;;;1.46;100.00
63006;BME280;53704;52.532;6.426;2023-04-02T07:27:50;102154.72;;;1.56;100.00
63006;BME280;53704;52.532;6.426;2023-04-02T07:30:16;102165.28;;;1.58;100.00
63006;BME280;53704;52.532;6.426;2023-04-02T07:32:42;102173.53;;;1.33;100.00
63006;BME280;53704;52.532;6.426;2023-04-02T07:35:08;102174.97;;;1.40;100.00
63006;BME280;53704;52.532;6.426;2023-04-02T07:37:35;102181.81;;;1.46;100.00
63006;BME280;53704;52.532;6.426;2023-04-02T07:40:05;102187.03;;;1.47;100.00
63006;BME280;53704;52.532;6.426;2023-04-02T07:42:31;102188.88;;;1.45;100.00
63006;BME280;53704;52.532;6.426;2023-04-02T07:44:56;102192.84;;;1.36;100.00
63006;BME280;53704;52.532;6.426;2023-04-02T07:47:22;102186.72;;;1.34;100.00
63006;BME280;53704;52.532;6.426;2023-04-02T07:49:47;102190.16;;;1.17;100.00
63006;BME280;53704;52.532;6.426;2023-04-02T07:52:12;102199.03;;;1.16;100.00
63006;BME280;53704;52.532;6.426;2023-04-02T07:54:38;102202.69;;;1.14;100.00
63006;BME280;53704;52.532;6.426;2023-04-02T07:57:04;102202.97;;;1.26;100.00
63006;BME280;53704;52.532;6.426;2023-04-02T07:59:30;102211.09;;;1.04;100.00
63006;BME280;53704;52.532;6.426;2023-04-02T08:01:55;102206.25;;;1.33;100.00
63006;BME280;53704;52.532;6.426;2023-04-02T08:04:21;102208.16;;;1.30;100.00
63006;BME280;53704;52.532;6.426;2023-04-02T08:06:48;102212.28;;;1.56;100.00
63006;BME280;53704;52.532;6.426;2023-04-02T08:09:15;102208.56;;;1.79;100.00
63006;BME280;53704;52.532;6.426;2023-04-02T08:11:41;102228.81;;;1.99;100.00
63006;BME280;53704;52.532;6.426;2023-04-02T08:14:10;102224.75;;;1.92;100.00
63006;BME280;53704;52.532;6.426;2023-04-02T08:16:52;102235.94;;;1.98;100.00
63006;BME280;53704;52.532;6.426;2023-04-02T08:19:18;102229.22;;;2.28;100.00
63006;BME280;53704;52.532;6.426;2023-04-02T08:21:45;102241.72;;;2.26;100.00
63006;BME280;53704;52.532;6.426;2023-04-02T08:24:12;102242.31;;;2.50;100.00
63006;BME280;53704;52.532;6.426;2023-04-02T08:26:37;102244.47;;;2.59;100.00
63006;BME280;53704;52.532;6.426;2023-04-02T08:29:03;102250.84;;;2.74;100.00
63006;BME280;53704;52.532;6.426;2023-04-02T08:31:28;102254.75;;;2.84;100.00
63006;BME280;53704;52.532;6.426;2023-04-02T08:33:54;102259.75;;;2.56;100.00
63006;BME280;53704;52.532;6.426;2023-04-02T08:36:27;102262.44;;;2.37;100.00
63006;BME280;53704;52.532;6.426;2023-04-02T08:38:54;102258.81;;;2.57;100.00
63006;BME280;53704;52.532;6.426;2023-04-02T08:41:24;102268.75;;;2.34;100.00
63006;BME280;53704;52.532;6.426;2023-04-02T08:44:58;102280.56;;;2.28;100.00
63006;BME280;53704;52.532;6.426;2023-04-02T08:47:05;102276.22;;;2.45;100.00
63006;BME280;53704;52.532;6.426;2023-04-02T08:49:41;102280.13;;;2.38;100.00
63006;BME280;53704;52.532;6.426;2023-04-02T08:52:21;102283.78;;;2.35;100.00
63006;BME280;53704;52.532;6.426;2023-04-02T08:54:47;102289.22;;;2.68;100.00
63006;BME280;53704;52.532;6.426;2023-04-02T08:59:58;102296.84;;;2.76;100.00
63006;BME280;53704;52.532;6.426;2023-04-02T09:04:59;102306.53;;;3.30;100.00
63006;BME280;53704;52.532;6.426;2023-04-02T09:07:26;102310.84;;;3.32;100.00
63006;BME280;53704;52.532;6.426;2023-04-02T09:09:52;102317.22;;;3.46;100.00
63006;BME280;53704;52.532;6.426;2023-04-02T09:12:29;102316.22;;;3.48;100.00
63006;BME280;53704;52.532;6.426;2023-04-02T09:17:26;102330.03;;;3.21;100.00
63006;BME280;53704;52.532;6.426;2023-04-02T09:19:56;102332.75;;;3.20;100.00
63006;BME280;53704;52.532;6.426;2023-04-02T09:22:30;102323.28;;;3.14;100.00
63006;BME280;53704;52.532;6.426;2023-04-02T09:24:58;102333.78;;;3.17;100.00
63006;BME280;53704;52.532;6.426;2023-04-02T09:27:30;102335.38;;;3.55;100.00
63006;BME280;53704;52.532;6.426;2023-04-02T09:32:34;102357.03;;;3.82;100.00
63006;BME280;53704;52.532;6.426;2023-04-02T09:35:12;102349.47;;;3.90;100.00
63006;BME280;53704;52.532;6.426;2023-04-02T09:37:40;102358.81;;;4.31;100.00
63006;BME280;53704;52.532;6.426;2023-04-02T09:40:24;102365.38;;;4.41;100.00
63006;BME280;53704;52.532;6.426;2023-04-02T09:43:13;102368.28;;;4.37;100.00
63006;BME280;53704;52.532;6.426;2023-04-02T09:45:41;102369.56;;;4.61;100.00
63006;BME280;53704;52.532;6.426;2023-04-02T09:48:23;102371.47;;;4.43;100.00
63006;BME280;53704;52.532;6.426;2023-04-02T09:51:03;102382.91;;;4.45;100.00
63006;BME280;53704;52.532;6.426;2023-04-02T09:53:33;102374.56;;;4.98;100.00
63006;BME280;53704;52.532;6.426;2023-04-02T09:56:20;102387.47;;;4.59;100.00
63006;BME280;53704;52.532;6.426;2023-04-02T09:59:14;102374.53;;;5.14;100.00
63006;BME280;53704;52.532;6.426;2023-04-02T10:01:56;102382.50;;;5.30;100.00
63006;BME280;53704;52.532;6.426;2023-04-02T10:04:40;102382.47;;;5.46;100.00
63006;BME280;53704;52.532;6.426;2023-04-02T10:10:45;102392.50;;;4.96;100.00
63006;BME280;53704;52.532;6.426;2023-04-02T10:12:52;102392.19;;;4.86;100.00
63006;BME280;53704;52.532;6.426;2023-04-02T10:15:26;102390.94;;;4.92;100.00
63006;BME280;53704;52.532;6.426;2023-04-02T10:18:06;102393.19;;;4.99;100.00
63006;BME280;53704;52.532;6.426;2023-04-02T10:20:33;102400.84;;;5.05;100.00
63006;BME280;53704;52.532;6.426;2023-04-02T10:23:04;102404.13;;;5.41;100.00
63006;BME280;53704;52.532;6.426;2023-04-02T10:25:34;102407.41;;;5.30;100.00
63006;BME280;53704;52.532;6.426;2023-04-02T10:30:59;102423.78;;;5.24;100.00
63006;BME280;53704;52.532;6.426;2023-04-02T10:33:35;102423.97;;;5.51;100.00
63006;BME280;53704;52.532;6.426;2023-04-02T10:36:08;102418.63;;;5.51;100.00
63006;BME280;53704;52.532;6.426;2023-04-02T10:46:27;102435.44;;;6.12;100.00
63006;BME280;53704;52.532;6.426;2023-04-02T10:57:07;102441.91;;;6.66;100.00
63006;BME280;53704;52.532;6.426;2023-04-02T10:59:48;102439.97;;;6.68;100.00
63006;BME280;53704;52.532;6.426;2023-04-02T11:02:34;102443.84;;;6.77;100.00
63006;BME280;53704;52.532;6.426;2023-04-02T11:05:06;102438.94;;;6.98;100.00
63006;BME280;53704;52.532;6.426;2023-04-02T11:07:45;102448.06;;;6.25;100.00
63006;BME280;53704;52.532;6.426;2023-04-02T11:10:16;102447.91;;;6.69;100.00
63006;BME280;53704;52.532;6.426;2023-04-02T11:13:21;102448.94;;;6.67;100.00
63006;BME280;53704;52.532;6.426;2023-04-02T11:15:48;102467.66;;;6.81;100.00
63006;BME280;53704;52.532;6.426;2023-04-02T11:18:29;102469.28;;;7.11;100.00
63006;BME280;53704;52.532;6.426;2023-04-02T11:21:04;102463.88;;;7.53;100.00
63006;BME280;53704;52.532;6.426;2023-04-02T11:23:33;102466.66;;;7.51;100.00
63006;BME280;53704;52.532;6.426;2023-04-02T11:26:28;102468.44;;;7.38;100.00
63006;BME280;53704;52.532;6.426;2023-04-02T11:29:22;102465.38;;;7.70;100.00
63006;BME280;53704;52.532;6.426;2023-04-02T11:31:50;102469.75;;;7.45;100.00
63006;BME280;53704;52.532;6.426;2023-04-02T11:37:43;102470.72;;;7.57;100.00
63006;BME280;53704;52.532;6.426;2023-04-02T11:42:48;102476.38;;;7.39;100.00
63006;BME280;53704;52.532;6.426;2023-04-02T11:50:38;102481.84;;;8.04;100.00
63006;BME280;53704;52.532;6.426;2023-04-02T11:55:44;102490.31;;;8.10;95.75
63006;BME280;53704;52.532;6.426;2023-04-02T12:11:54;102503.03;;;9.21;97.28
63006;BME280;53704;52.532;6.426;2023-04-02T12:14:51;102503.66;;;9.24;94.18
63006;BME280;53704;52.532;6.426;2023-04-02T12:19:53;102497.16;;;9.16;88.34
63006;BME280;53704;52.532;6.426;2023-04-02T12:22:30;102495.31;;;9.76;91.66
63006;BME280;53704;52.532;6.426;2023-04-02T12:25:03;102496.19;;;9.88;87.32
63006;BME280;53704;52.532;6.426;2023-04-02T12:27:29;102484.50;;;10.00;88.26
63006;BME280;53704;52.532;6.426;2023-04-02T12:30:19;102507.97;;;9.98;85.22
63006;BME280;53704;52.532;6.426;2023-04-02T12:32:45;102516.34;;;9.22;87.47
63006;BME280;53704;52.532;6.426;2023-04-02T12:35:33;102508.31;;;9.82;87.88
63006;BME280;53704;52.532;6.426;2023-04-02T12:37:59;102516.09;;;10.32;86.59
63006;BME280;53704;52.532;6.426;2023-04-02T12:40:26;102519.19;;;9.56;86.07
63006;BME280;53704;52.532;6.426;2023-04-02T12:42:52;102511.13;;;9.81;89.02
63006;BME280;53704;52.532;6.426;2023-04-02T12:45:23;102520.88;;;9.22;84.30
63006;BME280;53704;52.532;6.426;2023-04-02T12:47:52;102518.41;;;9.43;86.17
63006;BME280;53704;52.532;6.426;2023-04-02T12:50:18;102514.28;;;10.32;87.23
63006;BME280;53704;52.532;6.426;2023-04-02T12:52:45;102513.63;;;10.18;83.92
63006;BME280;53704;52.532;6.426;2023-04-02T12:55:29;102515.38;;;10.30;85.83
63006;BME280;53704;52.532;6.426;2023-04-02T12:57:57;102522.16;;;10.00;81.50
63006;BME280;53704;52.532;6.426;2023-04-02T13:02:51;102526.09;;;10.07;81.91
63006;BME280;53704;52.532;6.426;2023-04-02T13:05:48;102530.72;;;10.63;87.09
63006;BME280;53704;52.532;6.426;2023-04-02T13:08:22;102525.34;;;10.41;82.16
63006;BME280;53704;52.532;6.426;2023-04-02T13:11:01;102530.34;;;10.79;85.39
63006;BME280;53704;52.532;6.426;2023-04-02T13:13:39;102517.13;;;10.54;81.58
63006;BME280;53704;52.532;6.426;2023-04-02T13:18:40;102534.75;;;10.46;82.21
63006;BME280;53704;52.532;6.426;2023-04-02T13:23:42;102532.81;;;10.60;84.50
63006;BME280;53704;52.532;6.426;2023-04-02T13:31:21;102538.81;;;10.17;79.45
63006;BME280;53704;52.532;6.426;2023-04-02T13:33:47;102545.41;;;10.82;84.13
63006;BME280;53704;52.532;6.426;2023-04-02T13:36:13;102548.16;;;11.26;81.56
63006;BME280;53704;52.532;6.426;2023-04-02T13:38:39;102531.56;;;10.75;81.47
63006;BME280;53704;52.532;6.426;2023-04-02T13:41:05;102538.28;;;10.36;81.85
63006;BME280;53704;52.532;6.426;2023-04-02T13:43:30;102538.09;;;10.14;81.90
63006;BME280;53704;52.532;6.426;2023-04-02T13:45:57;102537.44;;;10.46;83.12
63006;BME280;53704;52.532;6.426;2023-04-02T13:48:23;102542.84;;;10.69;82.99
63006;BME280;53704;52.532;6.426;2023-04-02T13:50:52;102547.25;;;10.12;76.84
63006;BME280;53704;52.532;6.426;2023-04-02T13:53:27;102547.75;;;10.06;78.25
63006;BME280;53704;52.532;6.426;2023-04-02T13:55:54;102541.50;;;10.63;75.26
63006;BME280;53704;52.532;6.426;2023-04-02T13:58:19;102547.34;;;10.46;77.90
63006;BME280;53704;52.532;6.426;2023-04-02T14:00:52;102547.19;;;10.25;81.02
63006;BME280;53704;52.532;6.426;2023-04-02T14:03:20;102541.84;;;10.93;80.72
63006;BME280;53704;52.532;6.426;2023-04-02T14:06:13;102534.69;;;11.14;79.61
63006;BME280;53704;52.532;6.426;2023-04-02T14:09:03;102543.78;;;11.02;84.54
63006;BME280;53704;52.532;6.426;2023-04-02T14:30:25;102553.59;;;10.92;75.50
63006;BME280;53704;52.532;6.426;2023-04-02T14:35:46;102572.28;;;11.27;78.49
63006;BME280;53704;52.532;6.426;2023-04-02T14:38:32;102567.91;;;10.92;75.77
63006;BME280;53704;52.532;6.426;2023-04-02T14:41:14;102560.84;;;11.46;78.56
63006;BME280;53704;52.532;6.426;2023-04-02T14:43:52;102570.50;;;11.81;74.30
63006;BME280;53704;52.532;6.426;2023-04-02T14:46:24;102586.19;;;10.89;73.35
63006;BME280;53704;52.532;6.426;2023-04-02T14:49:23;102576.09;;;11.25;76.89
63006;BME280;53704;52.532;6.426;2023-04-02T14:57:15;102583.53;;;11.76;77.65
63006;BME280;53704;52.532;6.426;2023-04-02T15:08:11;102585.06;;;10.80;77.49
63006;BME280;53704;52.532;6.426;2023-04-02T15:13:35;102588.69;;;10.34;74.80
63006;BME280;53704;52.532;6.426;2023-04-02T15:16:08;102582.84;;;10.62;76.20
63006;BME280;53704;52.532;6.426;2023-04-02T15:18:35;102596.69;;;10.58;76.73
63006;BME280;53704;52.532;6.426;2023-04-02T15:26:22;102596.44;;;10.61;76.59
63006;BME280;53704;52.532;6.426;2023-04-02T15:29:12;102586.31;;;10.64;75.60
63006;BME280;53704;52.532;6.426;2023-04-02T15:31:44;102602.03;;;10.35;75.36
63006;BME280;53704;52.532;6.426;2023-04-02T15:34:22;102598.25;;;10.13;75.00
63006;BME280;53704;52.532;6.426;2023-04-02T15:42:13;102602.94;;;10.23;75.30
63006;BME280;53704;52.532;6.426;2023-04-02T15:47:37;102616.19;;;9.66;76.51
63006;BME280;53704;52.532;6.426;2023-04-02T15:53:36;102620.22;;;9.96;79.52
63006;BME280;53704;52.532;6.426;2023-04-02T16:09:49;102640.97;;;9.58;78.47
63006;BME280;53704;52.532;6.426;2023-04-02T16:12:18;102643.16;;;9.40;78.76
63006;BME280;53704;52.532;6.426;2023-04-02T16:14:46;102637.75;;;9.40;81.83
63006;BME280;53704;52.532;6.426;2023-04-02T16:17:23;102652.63;;;9.33;81.10
63006;BME280;53704;52.532;6.426;2023-04-02T16:20:25;102651.53;;;9.36;80.01
63006;BME280;53704;52.532;6.426;2023-04-02T16:23:01;102651.03;;;9.18;80.75
63006;BME280;53704;52.532;6.426;2023-04-02T16:25:32;102662.09;;;9.26;81.73
63006;BME280;53704;52.532;6.426;2023-04-02T16:30:54;102663.31;;;8.96;80.91
63006;BME280;53704;52.532;6.426;2023-04-02T16:39:02;102674.91;;;8.71;86.92
63006;BME280;53704;52.532;6.426;2023-04-02T16:49:35;102672.44;;;8.55;86.83
63006;BME280;53704;52.532;6.426;2023-04-02T16:52:18;102677.28;;;8.63;89.10
63006;BME280;53704;52.532;6.426;2023-04-02T17:07:56;102700.91;;;8.30;89.43
63006;BME280;53704;52.532;6.426;2023-04-02T17:13:56;102705.97;;;8.08;86.13
63006;BME280;53704;52.532;6.426;2023-04-02T17:16:43;102703.03;;;7.98;89.25
63006;BME280;53704;52.532;6.426;2023-04-02T17:19:11;102717.84;;;7.91;86.13
63006;BME280;53704;52.532;6.426;2023-04-02T17:21:39;102716.91;;;8.05;87.77
63006;BME280;53704;52.532;6.426;2023-04-02T17:24:22;102724.09;;;8.04;89.13
63006;BME280;53704;52.532;6.426;2023-04-02T17:26:52;102727.38;;;7.95;90.84
63006;BME280;53704;52.532;6.426;2023-04-02T17:29:22;102726.28;;;8.12;90.75